Indian River Shores, Florida
Current Conditions -  °F | °C
As of 3:53 PM on Friday 31 Oct 2014 (Local Time) from KVRB Reporting Station
Scattered Clouds Scattered Clouds  
Wind Chill: 27°   Ceiling: Unl
Heat Index: 27°   Visibility: 10mi
Dew Point: 17°   Wind: 10mph
Humidity: 54%   Direction: 290°WNW
Pressure: 29.76"   Gusts: 21mph
Location:  27.7066°N, 80.3826°W
Report Text: KVRB 311953Z 29009G18KT 10SM SCT042 SCT050 27/17 A2976 RMK AO2 SLP077 T02670167 $
Loading
Personal Weather Stations






























Interactive Weather Map
Tropical Storm Tracking
New forecast layout! Learn more

10-Day Weather Forecast

Advertisements
Track Severe Weather on mobile